Mc Kenna, Washington
Current Conditions -  °F | °C
As of 2:21 AM on Saturday 25 Oct 2014 (Local Time) from KGRF Reporting Station
Drizzle Drizzle  
Wind Chill: 50°   Ceiling: 9000
Heat Index: 50°   Visibility: 10mi
Dew Point: 50°   Wind: 3mph
Humidity: 100%   Direction: 290°WNW
Pressure: 29.64"   Gusts: NA
Location:  46.9238°N, 122.553°W
Report Text: KGRF 250921Z AUTO 29003KT 10SM DZ SCT005 BKN090 OVC190 10/10 A2964 RMK AO2 RAE0858DZB0858 $
Loading
Personal Weather Stations






























Interactive Weather Map
Tropical Storm Tracking
New forecast layout! Learn more

10-Day Weather Forecast

Advertisements
Track Severe Weather on mobile